createdAt,value
2019-01-23T00:02:39.735Z,2.00
2019-01-23T00:05:10.272Z,2.00
2019-01-23T00:07:40.660Z,1.90
2019-01-23T00:10:10.992Z,2.00
2019-01-23T00:12:41.324Z,2.00
2019-01-23T00:15:11.677Z,2.00
2019-01-23T00:17:42.030Z,1.90
2019-01-23T00:22:41.972Z,1.80
2019-01-23T00:25:12.315Z,1.70
2019-01-23T00:27:42.644Z,1.60
2019-01-23T00:35:12.351Z,1.40
2019-01-23T00:37:42.693Z,1.50
2019-01-23T00:40:13.026Z,1.60
2019-01-23T00:45:13.092Z,1.40
2019-01-23T00:47:43.439Z,1.30
2019-01-23T00:55:14.386Z,1.30
2019-01-23T01:02:51.451Z,1.30
2019-01-23T01:05:22.023Z,1.20
2019-01-23T01:07:52.860Z,1.20
2019-01-23T01:10:23.183Z,1.30
2019-01-23T01:12:53.604Z,1.30
2019-01-23T01:17:53.530Z,1.40
2019-01-23T01:25:23.048Z,1.40
2019-01-23T01:30:23.889Z,1.50
2019-01-23T01:37:53.424Z,1.40
2019-01-23T01:42:53.356Z,1.30
2019-01-23T01:50:22.844Z,1.30
2019-01-23T01:52:53.172Z,1.50
2019-01-23T01:57:57.136Z,1.40
2019-01-23T02:00:27.451Z,1.50
2019-01-23T02:02:57.815Z,1.50
2019-01-23T02:05:28.197Z,1.60
2019-01-23T02:07:58.496Z,1.60
2019-01-23T02:10:28.835Z,1.60
2019-01-23T02:12:59.149Z,1.60
2019-01-23T02:15:29.479Z,1.60
2019-01-23T02:17:59.806Z,1.60
2019-01-23T02:20:30.135Z,1.60
2019-01-23T02:23:00.503Z,1.60
2019-01-23T02:25:30.825Z,1.60
2019-01-23T02:28:01.176Z,1.60
2019-01-23T02:33:01.167Z,1.70
2019-01-23T02:35:31.479Z,1.60
2019-01-23T02:38:01.824Z,1.60
2019-01-23T02:43:01.762Z,1.60
2019-01-23T02:45:32.093Z,1.50
2019-01-23T02:50:32.148Z,1.60
2019-01-23T02:53:02.480Z,1.60
2019-01-23T02:55:32.808Z,1.60
2019-01-23T02:58:03.142Z,1.60
2019-01-23T03:00:33.482Z,1.60
2019-01-23T03:03:03.842Z,1.70
2019-01-23T03:05:34.198Z,1.60
2019-01-23T03:08:04.676Z,1.60
2019-01-23T03:13:04.708Z,1.60
2019-01-23T03:15:35.185Z,1.60
2019-01-23T03:18:05.629Z,1.60
2019-01-23T03:23:05.572Z,1.50
2019-01-23T03:28:05.484Z,1.50
2019-01-23T03:33:05.430Z,1.50
2019-01-23T03:38:05.439Z,1.50
2019-01-23T03:43:05.376Z,1.40
2019-01-23T03:48:05.623Z,1.40
2019-01-23T03:53:05.745Z,1.40
2019-01-23T03:55:36.104Z,1.40
2019-01-23T04:00:35.985Z,1.40
2019-01-23T04:05:35.973Z,1.40
2019-01-23T04:13:24.483Z,1.40
2019-01-23T04:15:54.833Z,1.30
2019-01-23T04:18:25.148Z,1.40
2019-01-23T04:20:55.492Z,1.40
2019-01-23T04:23:25.830Z,1.40
2019-01-23T04:25:56.175Z,1.40
2019-01-23T04:28:26.473Z,1.40
2019-01-23T04:33:26.428Z,1.40
2019-01-23T04:38:26.353Z,1.40
2019-01-23T04:43:26.296Z,1.50
2019-01-23T04:53:46.897Z,1.50
2019-01-23T05:01:16.416Z,1.40
2019-01-23T05:06:16.343Z,1.30
2019-01-23T05:08:46.659Z,1.30
2019-01-23T05:11:16.971Z,1.30
2019-01-23T05:16:16.885Z,1.20
2019-01-23T05:21:16.787Z,1.20
2019-01-23T05:26:16.716Z,1.20
2019-01-23T05:31:16.625Z,1.30
2019-01-23T05:36:17.704Z,1.20
2019-01-23T05:38:48.020Z,1.20
2019-01-23T05:46:17.558Z,0.80
2019-01-23T05:51:17.454Z,0.70
2019-01-23T05:56:17.375Z,0.70
2019-01-23T06:01:17.641Z,0.60
2019-01-23T06:06:17.540Z,0.60
2019-01-23T06:11:17.477Z,0.70
2019-01-23T06:16:17.436Z,0.80
2019-01-23T06:21:17.328Z,0.90
2019-01-23T06:23:47.664Z,0.90
2019-01-23T06:28:47.567Z,1.00
2019-01-23T06:33:47.487Z,1.00
2019-01-23T06:36:17.821Z,1.10
2019-01-23T06:46:17.020Z,1.20
2019-01-23T06:51:16.965Z,1.20
2019-01-23T07:01:16.068Z,0.70
2019-01-23T07:13:44.760Z,0.30
2019-01-23T07:23:43.892Z,0.10
2019-01-23T07:28:49.144Z,0.10
2019-01-23T07:31:15.761Z,0.20
2019-01-23T07:48:44.099Z,0.90
2019-01-23T07:51:14.464Z,1.00
2019-01-23T07:56:14.484Z,1.10
2019-01-23T07:58:44.864Z,1.10
2019-01-23T08:01:15.531Z,1.20
2019-01-23T08:03:46.051Z,1.20
2019-01-23T08:06:16.415Z,1.30
2019-01-23T08:08:46.920Z,1.20
2019-01-23T08:11:17.280Z,1.20
2019-01-23T08:21:16.583Z,1.40
2019-01-23T08:26:16.568Z,1.40
2019-01-23T08:31:16.538Z,1.60
2019-01-23T08:36:16.532Z,1.70
2019-01-23T08:46:15.624Z,1.80
2019-01-23T08:53:45.228Z,1.90
2019-01-23T08:56:15.536Z,1.90
2019-01-23T08:58:45.889Z,1.90
2019-01-23T09:01:16.216Z,2.00
2019-01-23T09:06:16.216Z,2.10
2019-01-23T09:18:45.336Z,2.30
2019-01-23T09:21:15.708Z,2.40
2019-01-23T09:26:16.556Z,2.60
2019-01-23T09:31:54.101Z,2.80
2019-01-23T09:39:57.931Z,2.90
2019-01-23T10:01:33.208Z,2.90
2019-01-23T10:06:33.172Z,2.70
2019-01-23T10:09:04.765Z,2.70
2019-01-23T10:11:35.367Z,2.90
2019-01-23T10:19:05.080Z,2.80
2019-01-23T10:24:05.507Z,3.10
2019-01-23T10:39:06.409Z,3.70
2019-01-23T10:46:36.137Z,3.80
2019-01-23T10:51:36.462Z,4.20
2019-01-23T10:56:36.416Z,5.80
2019-01-23T11:06:35.945Z,7.00
2019-01-23T11:11:37.812Z,8.10
2019-01-23T11:21:37.071Z,7.00
2019-01-23T11:31:36.237Z,5.50
2019-01-23T11:46:37.553Z,5.30
2019-01-23T11:51:37.562Z,4.90
2019-01-23T11:54:07.876Z,5.00
2019-01-23T11:59:07.800Z,5.30
2019-01-23T12:01:38.200Z,5.10
2019-01-23T12:09:10.323Z,8.20
2019-01-23T12:21:39.108Z,9.20
2019-01-23T12:24:09.445Z,8.90
2019-01-23T12:26:39.780Z,7.60
2019-01-23T12:29:10.127Z,6.70
2019-01-23T12:36:39.689Z,5.50
2019-01-23T12:39:10.128Z,5.60
2019-01-23T12:44:10.253Z,6.00
2019-01-23T12:49:10.237Z,5.80
2019-01-23T12:56:39.824Z,6.50
2019-01-23T12:59:10.161Z,6.40
2019-01-23T13:04:12.106Z,7.10
2019-01-23T13:09:13.532Z,9.40
2019-01-23T13:11:43.892Z,9.00
2019-01-23T13:16:43.796Z,7.30
2019-01-23T13:19:14.129Z,6.10
2019-01-23T13:21:44.483Z,5.70
2019-01-23T13:29:15.092Z,8.80
2019-01-23T13:31:49.104Z,8.70
2019-01-23T13:36:46.998Z,6.10
2019-01-23T13:41:47.911Z,9.30
2019-01-23T13:46:48.073Z,11.30
2019-01-23T13:51:47.964Z,11.80
2019-01-23T14:06:46.353Z,10.00
2019-01-23T14:14:15.912Z,8.20
2019-01-23T14:16:46.260Z,8.10
2019-01-23T14:19:16.592Z,7.30
2019-01-23T14:26:46.180Z,6.20
2019-01-23T14:29:16.510Z,7.20
2019-01-23T14:34:16.517Z,6.30
2019-01-23T14:36:46.843Z,8.10
2019-01-23T14:44:16.339Z,10.70
2019-01-23T14:46:46.727Z,10.70
2019-01-23T14:54:16.296Z,9.70
2019-01-23T14:56:46.810Z,9.90
2019-01-23T15:01:46.748Z,8.00
2019-01-23T15:04:17.060Z,6.10
2019-01-23T15:06:47.404Z,4.90
2019-01-23T15:14:16.981Z,3.40
2019-01-23T15:19:16.936Z,3.30
2019-01-23T15:24:16.936Z,3.00
2019-01-23T15:36:45.788Z,2.70
2019-01-23T15:39:16.108Z,2.60
2019-01-23T15:41:46.455Z,2.50
2019-01-23T15:46:46.432Z,2.50
2019-01-23T15:49:16.765Z,2.40
2019-01-23T15:54:16.690Z,2.20
2019-01-23T15:56:47.025Z,2.20
2019-01-23T15:59:17.424Z,2.10
2019-01-23T16:01:47.760Z,2.00
2019-01-23T16:06:47.692Z,1.80
2019-01-23T16:24:16.376Z,1.30
2019-01-23T16:26:46.732Z,1.20
2019-01-23T16:31:46.678Z,1.00
2019-01-23T16:36:46.787Z,1.00
2019-01-23T16:46:46.365Z,1.00
2019-01-23T16:51:51.314Z,0.90
2019-01-23T16:54:18.744Z,0.70
2019-01-23T16:56:49.388Z,0.90
2019-01-23T17:14:20.641Z,1.10
2019-01-23T17:16:51.001Z,1.10
2019-01-23T17:21:51.220Z,0.90
2019-01-23T17:29:20.899Z,0.50
2019-01-23T17:34:20.896Z,0.40
2019-01-23T17:39:21.263Z,0.40
2019-01-23T17:41:51.721Z,0.40
2019-01-23T17:44:22.124Z,0.30
2019-01-23T17:46:52.724Z,0.50
2019-01-23T18:01:52.216Z,0.70
2019-01-23T18:09:22.100Z,0.60
2019-01-23T18:14:22.318Z,0.60
2019-01-23T18:19:22.608Z,0.40
2019-01-23T18:21:53.245Z,0.50
2019-01-23T18:35:18.728Z,0.70
2019-01-23T18:38:43.726Z,0.60
2019-01-23T18:50:04.224Z,0.50
2019-01-23T18:55:04.412Z,0.30
2019-01-23T18:57:34.800Z,0.30
2019-01-23T19:00:08.228Z,0.30
2019-01-23T19:02:38.670Z,0.40
2019-01-23T19:07:39.164Z,0.40
2019-01-23T19:10:12.381Z,0.30
2019-01-23T19:12:42.713Z,0.20
2019-01-23T19:15:14.819Z,0.20
2019-01-23T19:17:45.149Z,0.20
2019-01-23T19:27:46.247Z,0.10
2019-01-23T19:32:47.416Z,0.00
2019-01-23T19:37:47.512Z,0.00
2019-01-23T19:52:47.324Z,0.30
2019-01-23T19:57:47.776Z,0.40
2019-01-23T20:02:49.019Z,0.30
2019-01-23T20:15:20.328Z,0.50
2019-01-23T20:22:50.668Z,0.70
2019-01-23T20:25:23.088Z,0.70
2019-01-23T20:37:53.484Z,0.90
2019-01-23T20:42:53.417Z,0.90
2019-01-23T20:45:23.737Z,0.80
2019-01-23T20:47:54.102Z,0.80
2019-01-23T20:52:55.276Z,0.80
2019-01-23T20:57:55.216Z,0.70
2019-01-23T21:00:27.990Z,0.70
2019-01-23T21:02:58.340Z,0.50
2019-01-23T21:07:58.561Z,0.40
2019-01-23T21:17:59.132Z,0.10
2019-01-23T21:20:32.514Z,0.10
2019-01-23T21:30:31.867Z,0.40
2019-01-23T21:33:02.236Z,0.30
2019-01-23T21:35:32.707Z,0.40
2019-01-23T21:38:03.041Z,0.40
2019-01-23T21:48:04.003Z,0.40
2019-01-23T21:50:34.328Z,0.40
2019-01-23T21:53:05.057Z,0.30
2019-01-23T21:58:06.300Z,0.30
2019-01-23T22:15:37.464Z,0.30
2019-01-23T22:20:38.335Z,0.30
2019-01-23T22:25:38.289Z,0.30
2019-01-23T22:30:38.200Z,0.30
2019-01-23T22:35:38.244Z,0.30
2019-01-23T22:45:37.524Z,0.40
2019-01-23T22:48:07.866Z,0.40
2019-01-23T22:50:38.196Z,0.40
2019-01-23T22:55:38.399Z,0.30
2019-01-23T23:03:21.568Z,0.30
2019-01-23T23:05:51.884Z,0.30
2019-01-23T23:08:22.191Z,0.30
2019-01-23T23:10:52.535Z,0.30
2019-01-23T23:15:52.645Z,0.30
2019-01-23T23:18:23.015Z,0.30
2019-01-23T23:20:53.328Z,0.30
2019-01-23T23:23:23.713Z,0.40
2019-01-23T23:25:54.056Z,0.40
2019-01-23T23:28:26.088Z,0.40
2019-01-23T23:30:56.559Z,0.40
2019-01-23T23:33:26.912Z,0.50
2019-01-23T23:35:57.264Z,0.50
2019-01-23T23:38:27.609Z,0.50
2019-01-23T23:43:27.532Z,0.50
2019-01-23T23:48:27.479Z,0.50
2019-01-23T23:50:57.803Z,0.50
2019-01-23T23:53:28.143Z,3.70
2019-01-23T23:55:58.481Z,0.40
2019-01-23T23:58:28.820Z,0.50
